sensor_id;sensor_type;location;lat;lon;timestamp;temperature;humidity
18876;DHT22;9570;50.854;13.778;2022-08-04T00:00:29;21.40;99.90
18876;DHT22;9570;50.854;13.778;2022-08-04T00:03:01;21.40;99.90
18876;DHT22;9570;50.854;13.778;2022-08-04T00:05:43;21.40;99.90
18876;DHT22;9570;50.854;13.778;2022-08-04T00:10:39;21.20;99.90
18876;DHT22;9570;50.854;13.778;2022-08-04T00:13:05;21.20;99.90
18876;DHT22;9570;50.854;13.778;2022-08-04T00:15:33;21.30;99.90
18876;DHT22;9570;50.854;13.778;2022-08-04T00:18:03;21.30;99.90
18876;DHT22;9570;50.854;13.778;2022-08-04T00:20:31;21.30;99.90
18876;DHT22;9570;50.854;13.778;2022-08-04T00:22:59;21.30;99.90
18876;DHT22;9570;50.854;13.778;2022-08-04T00:25:25;21.20;99.90
18876;DHT22;9570;50.854;13.778;2022-08-04T00:27:50;21.20;99.90
18876;DHT22;9570;50.854;13.778;2022-08-04T00:30:16;21.10;99.90
18876;DHT22;9570;50.854;13.778;2022-08-04T00:32:41;21.10;99.90
18876;DHT22;9570;50.854;13.778;2022-08-04T00:35:13;21.10;99.90
18876;DHT22;9570;50.854;13.778;2022-08-04T00:37:39;21.10;99.90
18876;DHT22;9570;50.854;13.778;2022-08-04T00:40:27;21.00;99.90
18876;DHT22;9570;50.854;13.778;2022-08-04T00:43:18;21.10;99.90
18876;DHT22;9570;50.854;13.778;2022-08-04T00:45:57;21.00;99.90
18876;DHT22;9570;50.854;13.778;2022-08-04T00:48:43;21.00;99.90
18876;DHT22;9570;50.854;13.778;2022-08-04T00:51:29;20.90;99.90
18876;DHT22;9570;50.854;13.778;2022-08-04T00:54:14;20.90;99.90
18876;DHT22;9570;50.854;13.778;2022-08-04T00:57:00;20.90;99.90
18876;DHT22;9570;50.854;13.778;2022-08-04T00:59:43;20.80;99.90
18876;DHT22;9570;50.854;13.778;2022-08-04T01:02:45;20.80;99.90
18876;DHT22;9570;50.854;13.778;2022-08-04T01:05:42;20.80;99.90
18876;DHT22;9570;50.854;13.778;2022-08-04T01:08:44;20.70;99.90
18876;DHT22;9570;50.854;13.778;2022-08-04T01:11:36;20.70;99.90
18876;DHT22;9570;50.854;13.778;2022-08-04T01:14:23;20.70;99.90
18876;DHT22;9570;50.854;13.778;2022-08-04T01:16:57;20.60;99.90
18876;DHT22;9570;50.854;13.778;2022-08-04T01:25:28;20.60;99.90
18876;DHT22;9570;50.854;13.778;2022-08-04T01:30:42;20.60;99.90
18876;DHT22;9570;50.854;13.778;2022-08-04T01:33:12;20.70;99.90
18876;DHT22;9570;50.854;13.778;2022-08-04T01:35:46;20.60;99.90
18876;DHT22;9570;50.854;13.778;2022-08-04T01:38:18;20.60;99.90
18876;DHT22;9570;50.854;13.778;2022-08-04T01:40:50;20.60;99.90
18876;DHT22;9570;50.854;13.778;2022-08-04T01:43:17;20.60;99.90
18876;DHT22;9570;50.854;13.778;2022-08-04T01:45:49;20.60;99.90
18876;DHT22;9570;50.854;13.778;2022-08-04T01:48:17;20.60;99.90
18876;DHT22;9570;50.854;13.778;2022-08-04T01:50:47;20.60;99.90
18876;DHT22;9570;50.854;13.778;2022-08-04T01:53:12;20.60;99.90
18876;DHT22;9570;50.854;13.778;2022-08-04T01:55:38;20.60;99.90
18876;DHT22;9570;50.854;13.778;2022-08-04T01:58:05;20.60;99.90
18876;DHT22;9570;50.854;13.778;2022-08-04T02:00:30;20.60;99.90
18876;DHT22;9570;50.854;13.778;2022-08-04T02:02:56;20.70;99.90
18876;DHT22;9570;50.854;13.778;2022-08-04T02:05:24;20.70;99.90
18876;DHT22;9570;50.854;13.778;2022-08-04T02:08:20;20.70;99.90
18876;DHT22;9570;50.854;13.778;2022-08-04T02:11:14;20.70;99.90
18876;DHT22;9570;50.854;13.778;2022-08-04T02:14:07;20.70;99.90
18876;DHT22;9570;50.854;13.778;2022-08-04T02:16:48;20.70;99.90
18876;DHT22;9570;50.854;13.778;2022-08-04T02:19:32;20.70;99.90
18876;DHT22;9570;50.854;13.778;2022-08-04T02:22:07;20.60;99.90
18876;DHT22;9570;50.854;13.778;2022-08-04T02:24:42;20.60;99.90
18876;DHT22;9570;50.854;13.778;2022-08-04T02:27:12;20.50;99.90
18876;DHT22;9570;50.854;13.778;2022-08-04T02:29:53;20.50;99.90
18876;DHT22;9570;50.854;13.778;2022-08-04T02:32:25;20.60;99.90
18876;DHT22;9570;50.854;13.778;2022-08-04T02:35:11;20.50;99.90
18876;DHT22;9570;50.854;13.778;2022-08-04T02:37:46;20.40;99.90
18876;DHT22;9570;50.854;13.778;2022-08-04T02:40:16;20.50;99.90
18876;DHT22;9570;50.854;13.778;2022-08-04T02:42:45;20.50;99.90
18876;DHT22;9570;50.854;13.778;2022-08-04T02:45:11;20.50;99.90
18876;DHT22;9570;50.854;13.778;2022-08-04T02:47:37;20.50;99.90
18876;DHT22;9570;50.854;13.778;2022-08-04T02:50:04;20.50;99.90
18876;DHT22;9570;50.854;13.778;2022-08-04T02:52:33;20.50;99.90
18876;DHT22;9570;50.854;13.778;2022-08-04T02:55:00;20.50;99.90
18876;DHT22;9570;50.854;13.778;2022-08-04T02:57:29;20.50;99.90
18876;DHT22;9570;50.854;13.778;2022-08-04T03:00:06;20.50;99.90
18876;DHT22;9570;50.854;13.778;2022-08-04T03:03:11;20.50;99.90
18876;DHT22;9570;50.854;13.778;2022-08-04T03:08:43;20.60;99.90
18876;DHT22;9570;50.854;13.778;2022-08-04T03:11:38;20.60;99.90
18876;DHT22;9570;50.854;13.778;2022-08-04T03:17:15;20.60;99.90
18876;DHT22;9570;50.854;13.778;2022-08-04T03:22:48;20.60;99.90
18876;DHT22;9570;50.854;13.778;2022-08-04T03:28:59;20.60;99.90
18876;DHT22;9570;50.854;13.778;2022-08-04T03:31:48;20.70;99.90
18876;DHT22;9570;50.854;13.778;2022-08-04T03:44:00;20.60;99.90
18876;DHT22;9570;50.854;13.778;2022-08-04T03:53:23;20.50;99.90
18876;DHT22;9570;50.854;13.778;2022-08-04T04:04:34;20.50;99.90
18876;DHT22;9570;50.854;13.778;2022-08-04T04:13:06;20.50;99.90
18876;DHT22;9570;50.854;13.778;2022-08-04T04:18:19;20.50;99.90
18876;DHT22;9570;50.854;13.778;2022-08-04T04:21:26;20.50;99.90
18876;DHT22;9570;50.854;13.778;2022-08-04T04:24:21;20.50;99.90
18876;DHT22;9570;50.854;13.778;2022-08-04T04:27:08;20.50;99.90
18876;DHT22;9570;50.854;13.778;2022-08-04T04:30:07;20.50;99.90
18876;DHT22;9570;50.854;13.778;2022-08-04T04:44:34;20.60;99.90
18876;DHT22;9570;50.854;13.778;2022-08-04T04:47:14;20.60;99.90
18876;DHT22;9570;50.854;13.778;2022-08-04T04:49:51;20.60;99.90
18876;DHT22;9570;50.854;13.778;2022-08-04T04:52:41;20.70;99.90
18876;DHT22;9570;50.854;13.778;2022-08-04T04:55:15;20.70;99.90
18876;DHT22;9570;50.854;13.778;2022-08-04T04:57:44;20.70;99.90
18876;DHT22;9570;50.854;13.778;2022-08-04T05:00:11;20.80;99.90
18876;DHT22;9570;50.854;13.778;2022-08-04T05:08:20;20.90;99.90
18876;DHT22;9570;50.854;13.778;2022-08-04T05:16:01;21.00;99.90
18876;DHT22;9570;50.854;13.778;2022-08-04T05:18:32;21.00;99.90
18876;DHT22;9570;50.854;13.778;2022-08-04T05:23:48;21.00;99.90
18876;DHT22;9570;50.854;13.778;2022-08-04T05:26:15;21.10;99.90
18876;DHT22;9570;50.854;13.778;2022-08-04T05:28:50;21.00;99.90
18876;DHT22;9570;50.854;13.778;2022-08-04T05:31:20;21.10;99.90
18876;DHT22;9570;50.854;13.778;2022-08-04T05:34:21;21.10;99.90
18876;DHT22;9570;50.854;13.778;2022-08-04T05:36:50;21.10;99.90
18876;DHT22;9570;50.854;13.778;2022-08-04T05:39:23;21.20;99.90
18876;DHT22;9570;50.854;13.778;2022-08-04T05:41:50;21.30;99.90
18876;DHT22;9570;50.854;13.778;2022-08-04T05:44:18;21.40;99.90
18876;DHT22;9570;50.854;13.778;2022-08-04T05:46:47;21.40;99.90
18876;DHT22;9570;50.854;13.778;2022-08-04T05:49:13;21.50;99.90
18876;DHT22;9570;50.854;13.778;2022-08-04T05:51:41;21.60;99.90
18876;DHT22;9570;50.854;13.778;2022-08-04T05:54:09;21.70;99.90
18876;DHT22;9570;50.854;13.778;2022-08-04T05:56:35;21.70;99.90
18876;DHT22;9570;50.854;13.778;2022-08-04T05:59:02;21.80;99.90
18876;DHT22;9570;50.854;13.778;2022-08-04T06:01:29;21.90;99.90
18876;DHT22;9570;50.854;13.778;2022-08-04T06:03:57;22.00;99.90
18876;DHT22;9570;50.854;13.778;2022-08-04T06:06:24;22.20;99.90
18876;DHT22;9570;50.854;13.778;2022-08-04T06:08:50;22.40;99.90
18876;DHT22;9570;50.854;13.778;2022-08-04T06:11:18;22.60;99.90
18876;DHT22;9570;50.854;13.778;2022-08-04T06:13:50;23.00;99.90
18876;DHT22;9570;50.854;13.778;2022-08-04T06:16:21;23.50;99.90
18876;DHT22;9570;50.854;13.778;2022-08-04T06:18:48;24.10;99.90
18876;DHT22;9570;50.854;13.778;2022-08-04T06:21:17;24.60;99.90
18876;DHT22;9570;50.854;13.778;2022-08-04T06:23:45;25.10;99.90
18876;DHT22;9570;50.854;13.778;2022-08-04T06:26:12;25.60;99.90
18876;DHT22;9570;50.854;13.778;2022-08-04T06:28:46;26.10;99.90
18876;DHT22;9570;50.854;13.778;2022-08-04T06:31:13;26.60;99.90
18876;DHT22;9570;50.854;13.778;2022-08-04T06:33:47;27.10;99.90
18876;DHT22;9570;50.854;13.778;2022-08-04T06:36:14;27.60;99.90
18876;DHT22;9570;50.854;13.778;2022-08-04T06:38:40;27.90;99.90
18876;DHT22;9570;50.854;13.778;2022-08-04T06:41:07;28.20;99.90
18876;DHT22;9570;50.854;13.778;2022-08-04T06:43:35;28.50;99.90
18876;DHT22;9570;50.854;13.778;2022-08-04T06:46:03;28.80;99.90
18876;DHT22;9570;50.854;13.778;2022-08-04T06:48:30;29.20;99.90
18876;DHT22;9570;50.854;13.778;2022-08-04T06:50:57;29.50;99.90
18876;DHT22;9570;50.854;13.778;2022-08-04T06:53:25;29.80;99.90
18876;DHT22;9570;50.854;13.778;2022-08-04T06:55:50;30.10;99.90
18876;DHT22;9570;50.854;13.778;2022-08-04T06:58:18;30.40;99.90
18876;DHT22;9570;50.854;13.778;2022-08-04T07:00:46;30.70;99.90
18876;DHT22;9570;50.854;13.778;2022-08-04T07:03:13;30.90;99.90
18876;DHT22;9570;50.854;13.778;2022-08-04T07:05:39;31.10;99.90
18876;DHT22;9570;50.854;13.778;2022-08-04T07:08:06;31.30;99.90
18876;DHT22;9570;50.854;13.778;2022-08-04T07:10:32;31.40;99.90
18876;DHT22;9570;50.854;13.778;2022-08-04T07:12:59;31.50;99.90
18876;DHT22;9570;50.854;13.778;2022-08-04T07:15:26;31.90;99.90
18876;DHT22;9570;50.854;13.778;2022-08-04T07:17:53;32.20;99.90
18876;DHT22;9570;50.854;13.778;2022-08-04T07:20:21;32.50;99.90
18876;DHT22;9570;50.854;13.778;2022-08-04T07:22:47;32.90;99.90
18876;DHT22;9570;50.854;13.778;2022-08-04T07:25:14;33.40;99.90
18876;DHT22;9570;50.854;13.778;2022-08-04T07:27:41;33.60;99.90
18876;DHT22;9570;50.854;13.778;2022-08-04T07:30:07;33.80;99.90
18876;DHT22;9570;50.854;13.778;2022-08-04T07:32:34;33.90;99.90
18876;DHT22;9570;50.854;13.778;2022-08-04T07:35:00;34.10;99.90
18876;DHT22;9570;50.854;13.778;2022-08-04T07:37:27;33.90;99.90
18876;DHT22;9570;50.854;13.778;2022-08-04T07:39:52;34.00;99.90
18876;DHT22;9570;50.854;13.778;2022-08-04T07:42:19;34.40;99.90
18876;DHT22;9570;50.854;13.778;2022-08-04T07:44:46;34.50;98.90
18876;DHT22;9570;50.854;13.778;2022-08-04T07:47:11;34.50;98.30
18876;DHT22;9570;50.854;13.778;2022-08-04T07:49:37;34.50;97.40
18876;DHT22;9570;50.854;13.778;2022-08-04T07:52:05;34.60;97.20
18876;DHT22;9570;50.854;13.778;2022-08-04T07:54:32;34.80;96.60
18876;DHT22;9570;50.854;13.778;2022-08-04T07:56:58;34.90;96.20
18876;DHT22;9570;50.854;13.778;2022-08-04T07:59:24;34.90;95.70
18876;DHT22;9570;50.854;13.778;2022-08-04T08:01:49;34.90;96.10
18876;DHT22;9570;50.854;13.778;2022-08-04T08:04:15;35.10;96.10
18876;DHT22;9570;50.854;13.778;2022-08-04T08:06:41;35.30;95.60
18876;DHT22;9570;50.854;13.778;2022-08-04T08:09:13;35.50;95.20
18876;DHT22;9570;50.854;13.778;2022-08-04T08:11:44;35.50;94.50
18876;DHT22;9570;50.854;13.778;2022-08-04T08:14:11;35.40;95.10
18876;DHT22;9570;50.854;13.778;2022-08-04T08:16:37;35.30;95.20
18876;DHT22;9570;50.854;13.778;2022-08-04T08:19:03;35.20;94.70
18876;DHT22;9570;50.854;13.778;2022-08-04T08:21:29;35.20;93.90
18876;DHT22;9570;50.854;13.778;2022-08-04T08:23:54;35.10;94.70
18876;DHT22;9570;50.854;13.778;2022-08-04T08:26:20;35.20;94.30
18876;DHT22;9570;50.854;13.778;2022-08-04T08:28:46;35.30;94.20
18876;DHT22;9570;50.854;13.778;2022-08-04T08:31:11;35.20;93.80
18876;DHT22;9570;50.854;13.778;2022-08-04T08:33:37;35.30;93.80
18876;DHT22;9570;50.854;13.778;2022-08-04T08:39:27;35.20;94.00
18876;DHT22;9570;50.854;13.778;2022-08-04T08:42:21;35.40;93.60
18876;DHT22;9570;50.854;13.778;2022-08-04T08:45:14;35.50;93.50
18876;DHT22;9570;50.854;13.778;2022-08-04T08:48:05;35.40;93.40
18876;DHT22;9570;50.854;13.778;2022-08-04T08:51:01;35.50;93.40
18876;DHT22;9570;50.854;13.778;2022-08-04T08:56:31;35.30;93.10
18876;DHT22;9570;50.854;13.778;2022-08-04T08:59:33;35.30;92.80
18876;DHT22;9570;50.854;13.778;2022-08-04T09:02:17;35.30;93.20
18876;DHT22;9570;50.854;13.778;2022-08-04T09:05:36;35.40;92.70
18876;DHT22;9570;50.854;13.778;2022-08-04T09:11:05;35.40;92.60
18876;DHT22;9570;50.854;13.778;2022-08-04T09:13:39;35.60;92.60
18876;DHT22;9570;50.854;13.778;2022-08-04T09:16:13;35.50;92.10
18876;DHT22;9570;50.854;13.778;2022-08-04T09:18:58;35.30;92.50
18876;DHT22;9570;50.854;13.778;2022-08-04T09:21:36;35.20;92.50
18876;DHT22;9570;50.854;13.778;2022-08-04T09:24:21;35.40;92.30
18876;DHT22;9570;50.854;13.778;2022-08-04T09:29:20;35.20;92.30
18876;DHT22;9570;50.854;13.778;2022-08-04T09:31:56;35.20;92.20
18876;DHT22;9570;50.854;13.778;2022-08-04T09:34:49;35.20;92.40
18876;DHT22;9570;50.854;13.778;2022-08-04T09:37:24;35.20;92.10
18876;DHT22;9570;50.854;13.778;2022-08-04T09:40:04;35.30;92.20
18876;DHT22;9570;50.854;13.778;2022-08-04T09:43:04;35.20;92.30
18876;DHT22;9570;50.854;13.778;2022-08-04T09:45:40;35.20;91.90
18876;DHT22;9570;50.854;13.778;2022-08-04T09:48:11;35.10;92.20
18876;DHT22;9570;50.854;13.778;2022-08-04T09:50:40;35.20;91.90
18876;DHT22;9570;50.854;13.778;2022-08-04T09:53:45;35.20;91.80
18876;DHT22;9570;50.854;13.778;2022-08-04T09:56:27;35.30;91.50
18876;DHT22;9570;50.854;13.778;2022-08-04T09:59:03;35.30;91.50
18876;DHT22;9570;50.854;13.778;2022-08-04T10:01:32;35.20;92.00
18876;DHT22;9570;50.854;13.778;2022-08-04T10:04:00;35.20;92.30
18876;DHT22;9570;50.854;13.778;2022-08-04T10:06:44;35.20;91.60
18876;DHT22;9570;50.854;13.778;2022-08-04T10:09:38;35.30;91.30
18876;DHT22;9570;50.854;13.778;2022-08-04T10:12:29;35.30;91.30
18876;DHT22;9570;50.854;13.778;2022-08-04T10:15:19;35.10;91.60
18876;DHT22;9570;50.854;13.778;2022-08-04T10:18:16;35.40;91.80
18876;DHT22;9570;50.854;13.778;2022-08-04T10:20:54;35.50;91.20
18876;DHT22;9570;50.854;13.778;2022-08-04T10:26:30;35.60;90.90
18876;DHT22;9570;50.854;13.778;2022-08-04T10:29:04;35.60;91.20
18876;DHT22;9570;50.854;13.778;2022-08-04T10:31:33;35.60;91.00
18876;DHT22;9570;50.854;13.778;2022-08-04T10:34:16;35.40;90.90
18876;DHT22;9570;50.854;13.778;2022-08-04T10:36:55;35.20;91.10
18876;DHT22;9570;50.854;13.778;2022-08-04T10:39:37;35.30;91.10
18876;DHT22;9570;50.854;13.778;2022-08-04T10:42:24;35.60;90.90
18876;DHT22;9570;50.854;13.778;2022-08-04T10:47:41;35.90;91.10
18876;DHT22;9570;50.854;13.778;2022-08-04T10:50:09;35.80;90.60
18876;DHT22;9570;50.854;13.778;2022-08-04T10:52:45;36.00;90.40
18876;DHT22;9570;50.854;13.778;2022-08-04T10:55:16;36.00;90.10
18876;DHT22;9570;50.854;13.778;2022-08-04T10:57:54;35.70;90.10
18876;DHT22;9570;50.854;13.778;2022-08-04T11:00:25;35.70;90.20
18876;DHT22;9570;50.854;13.778;2022-08-04T11:03:00;35.70;90.30
18876;DHT22;9570;50.854;13.778;2022-08-04T11:05:55;35.60;90.40
18876;DHT22;9570;50.854;13.778;2022-08-04T11:08:28;35.40;90.60
18876;DHT22;9570;50.854;13.778;2022-08-04T11:11:15;35.30;90.40
18876;DHT22;9570;50.854;13.778;2022-08-04T11:14:15;35.30;90.50
18876;DHT22;9570;50.854;13.778;2022-08-04T11:22:05;34.70;90.30
18876;DHT22;9570;50.854;13.778;2022-08-04T11:27:54;34.30;90.60
18876;DHT22;9570;50.854;13.778;2022-08-04T11:30:30;34.10;91.50
18876;DHT22;9570;50.854;13.778;2022-08-04T11:33:01;34.30;90.90
18876;DHT22;9570;50.854;13.778;2022-08-04T11:35:41;34.20;91.00
18876;DHT22;9570;50.854;13.778;2022-08-04T11:38:16;34.20;90.90
18876;DHT22;9570;50.854;13.778;2022-08-04T11:40:46;34.10;90.80
18876;DHT22;9570;50.854;13.778;2022-08-04T11:43:23;34.10;91.10
18876;DHT22;9570;50.854;13.778;2022-08-04T11:45:54;34.10;91.10
18876;DHT22;9570;50.854;13.778;2022-08-04T11:48:31;34.10;90.70
18876;DHT22;9570;50.854;13.778;2022-08-04T11:50:59;34.10;90.70
18876;DHT22;9570;50.854;13.778;2022-08-04T11:53:30;34.00;90.50
18876;DHT22;9570;50.854;13.778;2022-08-04T11:55:59;34.00;90.50
18876;DHT22;9570;50.854;13.778;2022-08-04T11:58:26;33.90;90.80
18876;DHT22;9570;50.854;13.778;2022-08-04T12:01:17;33.80;90.90
18876;DHT22;9570;50.854;13.778;2022-08-04T12:04:03;33.80;90.90
18876;DHT22;9570;50.854;13.778;2022-08-04T12:06:38;33.90;90.70
18876;DHT22;9570;50.854;13.778;2022-08-04T12:09:15;33.80;90.40
18876;DHT22;9570;50.854;13.778;2022-08-04T12:12:17;33.70;90.30
18876;DHT22;9570;50.854;13.778;2022-08-04T12:20:19;33.80;90.90
18876;DHT22;9570;50.854;13.778;2022-08-04T12:22:49;33.80;90.20
18876;DHT22;9570;50.854;13.778;2022-08-04T12:25:20;33.60;90.40
18876;DHT22;9570;50.854;13.778;2022-08-04T12:27:52;33.50;90.40
18876;DHT22;9570;50.854;13.778;2022-08-04T12:30:19;33.30;91.00
18876;DHT22;9570;50.854;13.778;2022-08-04T12:33:08;33.40;90.60
18876;DHT22;9570;50.854;13.778;2022-08-04T12:36:00;33.40;91.60
18876;DHT22;9570;50.854;13.778;2022-08-04T12:38:29;33.50;90.80
18876;DHT22;9570;50.854;13.778;2022-08-04T12:40:58;33.60;91.20
18876;DHT22;9570;50.854;13.778;2022-08-04T12:43:38;33.60;90.60
18876;DHT22;9570;50.854;13.778;2022-08-04T12:46:08;33.60;90.60
18876;DHT22;9570;50.854;13.778;2022-08-04T12:48:36;33.50;90.80
18876;DHT22;9570;50.854;13.778;2022-08-04T12:51:03;33.50;90.70
18876;DHT22;9570;50.854;13.778;2022-08-04T12:53:36;33.50;90.70
18876;DHT22;9570;50.854;13.778;2022-08-04T12:56:04;33.40;90.60
18876;DHT22;9570;50.854;13.778;2022-08-04T12:58:36;33.40;90.70
18876;DHT22;9570;50.854;13.778;2022-08-04T13:01:05;33.30;90.80
18876;DHT22;9570;50.854;13.778;2022-08-04T13:03:41;33.20;90.60
18876;DHT22;9570;50.854;13.778;2022-08-04T13:06:10;33.20;90.70
18876;DHT22;9570;50.854;13.778;2022-08-04T13:08:38;33.30;90.90
18876;DHT22;9570;50.854;13.778;2022-08-04T13:11:05;33.20;91.40
18876;DHT22;9570;50.854;13.778;2022-08-04T13:13:34;33.30;90.70
18876;DHT22;9570;50.854;13.778;2022-08-04T13:16:02;33.30;91.00
18876;DHT22;9570;50.854;13.778;2022-08-04T13:18:32;33.40;91.00
18876;DHT22;9570;50.854;13.778;2022-08-04T13:21:16;33.30;90.70
18876;DHT22;9570;50.854;13.778;2022-08-04T13:23:43;33.30;90.90
18876;DHT22;9570;50.854;13.778;2022-08-04T13:26:14;33.30;90.60
18876;DHT22;9570;50.854;13.778;2022-08-04T13:28:47;33.30;90.80
18876;DHT22;9570;50.854;13.778;2022-08-04T13:31:19;33.30;90.70
18876;DHT22;9570;50.854;13.778;2022-08-04T13:33:51;33.10;91.00
18876;DHT22;9570;50.854;13.778;2022-08-04T13:36:18;33.20;90.80
18876;DHT22;9570;50.854;13.778;2022-08-04T13:38:56;33.20;90.80
18876;DHT22;9570;50.854;13.778;2022-08-04T13:41:23;33.10;90.80
18876;DHT22;9570;50.854;13.778;2022-08-04T13:43:53;33.20;90.80
18876;DHT22;9570;50.854;13.778;2022-08-04T13:46:21;33.20;90.60
18876;DHT22;9570;50.854;13.778;2022-08-04T13:48:48;33.20;91.00
18876;DHT22;9570;50.854;13.778;2022-08-04T13:51:17;33.10;90.60
18876;DHT22;9570;50.854;13.778;2022-08-04T13:53:43;33.10;90.40
18876;DHT22;9570;50.854;13.778;2022-08-04T13:56:09;33.10;90.60
18876;DHT22;9570;50.854;13.778;2022-08-04T13:58:42;33.20;90.20
18876;DHT22;9570;50.854;13.778;2022-08-04T14:01:13;33.00;90.30
18876;DHT22;9570;50.854;13.778;2022-08-04T14:08:52;33.00;90.30
18876;DHT22;9570;50.854;13.778;2022-08-04T14:11:21;32.90;90.20
18876;DHT22;9570;50.854;13.778;2022-08-04T14:13:47;32.90;90.40
18876;DHT22;9570;50.854;13.778;2022-08-04T14:16:18;32.90;90.40
18876;DHT22;9570;50.854;13.778;2022-08-04T14:18:44;32.90;90.10
18876;DHT22;9570;50.854;13.778;2022-08-04T14:21:12;32.90;90.10
18876;DHT22;9570;50.854;13.778;2022-08-04T14:23:44;32.90;90.60
18876;DHT22;9570;50.854;13.778;2022-08-04T14:26:31;32.90;90.50
18876;DHT22;9570;50.854;13.778;2022-08-04T14:29:15;32.90;90.60
18876;DHT22;9570;50.854;13.778;2022-08-04T14:31:41;32.80;90.50
18876;DHT22;9570;50.854;13.778;2022-08-04T14:34:06;32.90;90.30
18876;DHT22;9570;50.854;13.778;2022-08-04T14:36:43;32.90;90.60
18876;DHT22;9570;50.854;13.778;2022-08-04T14:39:09;32.90;90.30
18876;DHT22;9570;50.854;13.778;2022-08-04T14:41:48;33.00;90.30
18876;DHT22;9570;50.854;13.778;2022-08-04T14:44:14;33.00;90.30
18876;DHT22;9570;50.854;13.778;2022-08-04T14:46:50;33.00;90.00
18876;DHT22;9570;50.854;13.778;2022-08-04T14:49:16;32.90;90.10
18876;DHT22;9570;50.854;13.778;2022-08-04T14:51:44;32.90;90.20
18876;DHT22;9570;50.854;13.778;2022-08-04T14:54:12;32.90;90.20
18876;DHT22;9570;50.854;13.778;2022-08-04T14:56:38;32.90;90.30
18876;DHT22;9570;50.854;13.778;2022-08-04T14:59:08;32.80;90.50
18876;DHT22;9570;50.854;13.778;2022-08-04T15:01:38;32.80;90.20
18876;DHT22;9570;50.854;13.778;2022-08-04T15:04:05;32.80;90.30
18876;DHT22;9570;50.854;13.778;2022-08-04T15:06:33;32.70;90.30
18876;DHT22;9570;50.854;13.778;2022-08-04T15:09:09;32.70;90.30
18876;DHT22;9570;50.854;13.778;2022-08-04T15:11:36;32.70;90.40
18876;DHT22;9570;50.854;13.778;2022-08-04T15:14:02;32.70;90.80
18876;DHT22;9570;50.854;13.778;2022-08-04T15:16:29;32.80;90.30
18876;DHT22;9570;50.854;13.778;2022-08-04T15:18:56;32.80;90.60
18876;DHT22;9570;50.854;13.778;2022-08-04T15:21:23;32.80;90.60
18876;DHT22;9570;50.854;13.778;2022-08-04T15:23:50;32.80;90.60
18876;DHT22;9570;50.854;13.778;2022-08-04T15:26:24;32.80;90.60
18876;DHT22;9570;50.854;13.778;2022-08-04T15:28:55;32.70;90.70
18876;DHT22;9570;50.854;13.778;2022-08-04T15:31:23;32.60;90.80
18876;DHT22;9570;50.854;13.778;2022-08-04T15:33:50;32.60;91.00
18876;DHT22;9570;50.854;13.778;2022-08-04T15:36:24;32.60;91.10
18876;DHT22;9570;50.854;13.778;2022-08-04T15:47:18;32.50;91.10
18876;DHT22;9570;50.854;13.778;2022-08-04T15:49:44;32.40;91.20
18876;DHT22;9570;50.854;13.778;2022-08-04T15:52:13;32.40;91.10
18876;DHT22;9570;50.854;13.778;2022-08-04T15:54:41;32.40;91.20
18876;DHT22;9570;50.854;13.778;2022-08-04T15:57:07;32.40;91.40
18876;DHT22;9570;50.854;13.778;2022-08-04T15:59:55;32.40;91.20
18876;DHT22;9570;50.854;13.778;2022-08-04T16:02:38;32.30;91.20
18876;DHT22;9570;50.854;13.778;2022-08-04T16:05:28;32.30;91.30
18876;DHT22;9570;50.854;13.778;2022-08-04T16:08:11;32.30;91.30
18876;DHT22;9570;50.854;13.778;2022-08-04T16:10:42;32.30;91.40
18876;DHT22;9570;50.854;13.778;2022-08-04T16:13:19;32.40;91.30
18876;DHT22;9570;50.854;13.778;2022-08-04T16:15:51;32.50;91.50
18876;DHT22;9570;50.854;13.778;2022-08-04T16:20:57;32.30;91.40
18876;DHT22;9570;50.854;13.778;2022-08-04T16:23:46;32.30;91.50
18876;DHT22;9570;50.854;13.778;2022-08-04T16:29:27;32.30;91.50
18876;DHT22;9570;50.854;13.778;2022-08-04T16:34:39;32.30;91.50
18876;DHT22;9570;50.854;13.778;2022-08-04T16:37:10;32.20;91.50
18876;DHT22;9570;50.854;13.778;2022-08-04T16:39:36;32.10;91.80
18876;DHT22;9570;50.854;13.778;2022-08-04T16:47:59;32.10;91.80
18876;DHT22;9570;50.854;13.778;2022-08-04T16:50:25;32.00;92.00
18876;DHT22;9570;50.854;13.778;2022-08-04T16:52:53;32.00;91.90
18876;DHT22;9570;50.854;13.778;2022-08-04T16:55:20;32.00;91.90
18876;DHT22;9570;50.854;13.778;2022-08-04T16:57:59;31.90;92.00
18876;DHT22;9570;50.854;13.778;2022-08-04T17:00:35;31.90;92.00
18876;DHT22;9570;50.854;13.778;2022-08-04T17:03:06;31.90;92.00
18876;DHT22;9570;50.854;13.778;2022-08-04T17:05:32;31.90;91.90
18876;DHT22;9570;50.854;13.778;2022-08-04T17:07:59;31.90;92.00
18876;DHT22;9570;50.854;13.778;2022-08-04T17:10:31;31.90;92.00
18876;DHT22;9570;50.854;13.778;2022-08-04T17:12:57;31.80;91.90
18876;DHT22;9570;50.854;13.778;2022-08-04T17:15:23;31.80;91.90
18876;DHT22;9570;50.854;13.778;2022-08-04T17:17:49;31.80;92.00
18876;DHT22;9570;50.854;13.778;2022-08-04T17:20:14;31.70;92.00
18876;DHT22;9570;50.854;13.778;2022-08-04T17:22:41;31.70;92.00
18876;DHT22;9570;50.854;13.778;2022-08-04T17:25:07;31.70;92.10
18876;DHT22;9570;50.854;13.778;2022-08-04T17:27:33;31.70;92.00
18876;DHT22;9570;50.854;13.778;2022-08-04T17:29:58;31.60;92.20
18876;DHT22;9570;50.854;13.778;2022-08-04T17:32:24;31.60;92.20
18876;DHT22;9570;50.854;13.778;2022-08-04T17:34:58;31.60;92.20
18876;DHT22;9570;50.854;13.778;2022-08-04T17:37:25;31.50;92.30
18876;DHT22;9570;50.854;13.778;2022-08-04T17:39:51;31.40;92.40
18876;DHT22;9570;50.854;13.778;2022-08-04T17:42:35;31.40;92.40
18876;DHT22;9570;50.854;13.778;2022-08-04T17:45:11;31.30;92.40
18876;DHT22;9570;50.854;13.778;2022-08-04T17:47:50;31.30;92.40
18876;DHT22;9570;50.854;13.778;2022-08-04T17:50:26;31.20;92.60
18876;DHT22;9570;50.854;13.778;2022-08-04T17:53:02;31.10;92.60
18876;DHT22;9570;50.854;13.778;2022-08-04T17:55:42;31.10;92.60
18876;DHT22;9570;50.854;13.778;2022-08-04T17:58:21;31.10;92.70
18876;DHT22;9570;50.854;13.778;2022-08-04T18:01:02;31.10;92.70
18876;DHT22;9570;50.854;13.778;2022-08-04T18:03:27;31.00;92.70
18876;DHT22;9570;50.854;13.778;2022-08-04T18:05:53;30.90;92.80
18876;DHT22;9570;50.854;13.778;2022-08-04T18:08:25;30.90;92.80
18876;DHT22;9570;50.854;13.778;2022-08-04T18:10:52;30.90;92.90
18876;DHT22;9570;50.854;13.778;2022-08-04T18:13:18;30.80;93.00
18876;DHT22;9570;50.854;13.778;2022-08-04T18:15:43;30.80;92.90
18876;DHT22;9570;50.854;13.778;2022-08-04T18:18:20;30.70;93.00
18876;DHT22;9570;50.854;13.778;2022-08-04T18:20:46;30.70;93.00
18876;DHT22;9570;50.854;13.778;2022-08-04T18:23:13;30.60;93.00
18876;DHT22;9570;50.854;13.778;2022-08-04T18:25:43;30.60;93.00
18876;DHT22;9570;50.854;13.778;2022-08-04T18:28:08;30.50;93.00
18876;DHT22;9570;50.854;13.778;2022-08-04T18:30:35;30.50;93.10